| time (UTC) | temp F | wind direction | speed MPH | gust MPH | rain 1hr in | rain 24hr in | rain mn in | humidity % | barometer mb |
| 20260831023407 | 61 | 100 | 5.0 | 0.0 | 0.00 | 0.00 | 0.00 | 94 | 1018.0 |
| 20260831021859 | 0 | 0.0 | 0.0 | 0.00 | 0.00 | 0.00 | |||
| 20260831020401 | 0 | 0.0 | 0.0 | 0.00 | 0.00 | 0.00 | |||
| 20260831014856 | 63 | 120 | 6.0 | 0.0 | 0.00 | 0.00 | 0.00 | 83 | 1018.0 |
| 20260831013359 | 63 | 120 | 6.0 | 0.0 | 0.00 | 0.00 | 0.00 | 83 | 1018.0 |
| 20260831011900 | 63 | 120 | 6.0 | 0.0 | 0.00 | 0.00 | 0.00 | 83 | 1018.0 |
| 20260831010359 | 63 | 120 | 6.0 | 0.0 | 0.00 | 0.00 | 0.00 | 83 | 1018.0 |
| 20260831004900 | 63 | 120 | 6.0 | 0.0 | 0.00 | 0.00 | 0.00 | 83 | 1018.0 |
| 20260831003359 | 64 | 110 | 8.0 | 0.0 | 0.00 | 0.00 | 0.00 | 73 | 1018.0 |
| 20260831001859 | 64 | 110 | 8.0 | 0.0 | 0.00 | 0.00 | 0.00 | 73 | 1018.0 |
| 20260831000359 | 64 | 110 | 8.0 | 0.0 | 0.00 | 0.00 | 0.00 | 73 | 1018.0 |
| 20260830234856 | 66 | 100 | 7.0 | 0.0 | 0.00 | 0.00 | 0.00 | 64 | 1018.0 |
| 20260830233359 | 66 | 100 | 7.0 | 0.0 | 0.00 | 0.00 | 0.00 | 64 | 1018.0 |
| 20260830231900 | 66 | 100 | 7.0 | 0.0 | 0.00 | 0.00 | 0.00 | 64 | 1018.0 |
| 20260830230400 | 0 | 0.0 | 0.0 | 0.00 | 0.00 | 0.00 | |||
| 20260830224859 | 68 | 110 | 7.0 | 0.0 | 0.00 | 0.00 | 0.00 | 60 | 1018.0 |
| 20260830223359 | 68 | 110 | 7.0 | 0.0 | 0.00 | 0.00 | 0.00 | 60 | 1018.0 |
| 20260830221859 | 68 | 110 | 7.0 | 0.0 | 0.00 | 0.00 | 0.00 | 60 | 1018.0 |
| 20260830220400 | 68 | 110 | 7.0 | 0.0 | 0.00 | 0.00 | 0.00 | 60 | 1018.0 |
| 20260830214859 | 68 | 110 | 7.0 | 0.0 | 0.00 | 0.00 | 0.00 | 60 | 1018.0 |
| 20260830213359 | 70 | 120 | 6.0 | 0.0 | 0.00 | 0.00 | 0.00 | 53 | 1018.0 |
| 20260830211859 | 70 | 120 | 6.0 | 0.0 | 0.00 | 0.00 | 0.00 | 53 | 1018.0 |
| 20260830210359 | 0 | 0.0 | 0.0 | 0.00 | 0.00 | 0.00 | |||
| 20260830204859 | 72 | 110 | 8.0 | 0.0 | 0.00 | 0.00 | 0.00 | 50 | 1018.0 |
| 20260830203359 | 72 | 110 | 8.0 | 0.0 | 0.00 | 0.00 | 0.00 | 50 | 1018.0 |
| 20260830201859 | 72 | 110 | 8.0 | 0.0 | 0.00 | 0.00 | 0.00 | 50 | 1018.0 |
| 20260830200359 | 72 | 110 | 8.0 | 0.0 | 0.00 | 0.00 | 0.00 | 50 | 1018.0 |
| 20260830194859 | 72 | 110 | 8.0 | 0.0 | 0.00 | 0.00 | 0.00 | 50 | 1018.0 |
| 20260830193400 | 72 | 110 | 8.0 | 0.0 | 0.00 | 0.00 | 0.00 | 50 | 1018.0 |
| 20260830191901 | 72 | 110 | 8.0 | 0.0 | 0.00 | 0.00 | 0.00 | 50 | 1018.0 |
| 20260830190401 | 72 | 110 | 8.0 | 0.0 | 0.00 | 0.00 | 0.00 | 50 | 1018.0 |
| 20260830184900 | 75 | 120 | 9.0 | 0.0 | 0.00 | 0.00 | 0.00 | 44 | 1018.0 |
| 20260830183428 | 75 | 120 | 9.0 | 0.0 | 0.00 | 0.00 | 0.00 | 44 | 1018.0 |
| 20260830181900 | 75 | 120 | 9.0 | 0.0 | 0.00 | 0.00 | 0.00 | 44 | 1018.0 |
| 20260830180400 | 75 | 120 | 9.0 | 0.0 | 0.00 | 0.00 | 0.00 | 44 | 1018.0 |
| 20260830174859 | 79 | 120 | 11.0 | 0.0 | 0.00 | 0.00 | 0.00 | 39 | 1017.0 |
| 20260830173359 | 79 | 120 | 11.0 | 0.0 | 0.00 | 0.00 | 0.00 | 39 | 1017.0 |
| 20260830171859 | 79 | 120 | 11.0 | 0.0 | 0.00 | 0.00 | 0.00 | 39 | 1017.0 |
| 20260830170400 | 79 | 120 | 11.0 | 0.0 | 0.00 | 0.00 | 0.00 | 39 | 1017.0 |
| 20260830164859 | 82 | 130 | 16.0 | 0.0 | 0.00 | 0.00 | 0.00 | 35 | 1017.0 |
| 20260830163400 | 82 | 130 | 16.0 | 0.0 | 0.00 | 0.00 | 0.00 | 35 | 1017.0 |
| 20260830161858 | 82 | 130 | 16.0 | 0.0 | 0.00 | 0.00 | 0.00 | 35 | 1017.0 |
| 20260830160400 | 82 | 130 | 16.0 | 0.0 | 0.00 | 0.00 | 0.00 | 35 | 1017.0 |
| 20260830154901 | 84 | 120 | 5.0 | 0.0 | 0.00 | 0.00 | 0.00 | 35 | 1017.0 |
| 20260830153400 | 84 | 120 | 5.0 | 0.0 | 0.00 | 0.00 | 0.00 | 35 | 1017.0 |
| 20260830151859 | 84 | 120 | 5.0 | 0.0 | 0.00 | 0.00 | 0.00 | 35 | 1017.0 |
| 20260830150402 | 84 | 120 | 5.0 | 0.0 | 0.00 | 0.00 | 0.00 | 35 | 1017.0 |
| 20260830144900 | 88 | 100 | 5.0 | 0.0 | 0.00 | 0.00 | 0.00 | 31 | 1017.0 |
| 20260830143359 | 88 | 100 | 5.0 | 0.0 | 0.00 | 0.00 | 0.00 | 31 | 1017.0 |
| 20260830141859 | 88 | 100 | 5.0 | 0.0 | 0.00 | 0.00 | 0.00 | 31 | 1017.0 |
| 20260830140359 | 88 | 100 | 5.0 | 0.0 | 0.00 | 0.00 | 0.00 | 31 | 1017.0 |
| 20260830134859 | 88 | 120 | 5.0 | 0.0 | 0.00 | 0.00 | 0.00 | 33 | 1017.0 |
| 20260830133413 | 88 | 120 | 5.0 | 0.0 | 0.00 | 0.00 | 0.00 | 33 | 1017.0 |
| 20260830131901 | 88 | 120 | 5.0 | 0.0 | 0.00 | 0.00 | 0.00 | 33 | 1017.0 |
| 20260830130359 | 88 | 120 | 5.0 | 0.0 | 0.00 | 0.00 | 0.00 | 33 | 1017.0 |
| 20260830124859 | 86 | 3.0 | 0.0 | 0.00 | 0.00 | 0.00 | 40 | 1017.0 | |
| 20260830123359 | 86 | 3.0 | 0.0 | 0.00 | 0.00 | 0.00 | 40 | 1017.0 | |
| 20260830122023 | 0 | 0.0 | 0.0 | 0.00 | 0.00 | 0.00 | |||
| 20260830120359 | 86 | 3.0 | 0.0 | 0.00 | 0.00 | 0.00 | 40 | 1017.0 | |
| 20260830114858 | 86 | 3.0 | 0.0 | 0.00 | 0.00 | 0.00 | 40 | 1018.0 | |
| 20260830113400 | 86 | 3.0 | 0.0 | 0.00 | 0.00 | 0.00 | 40 | 1018.0 | |
| 20260830111859 | 86 | 3.0 | 0.0 | 0.00 | 0.00 | 0.00 | 40 | 1018.0 | |
| 20260830110359 | 86 | 3.0 | 0.0 | 0.00 | 0.00 | 0.00 | 40 | 1018.0 | |
| 20260830104900 | 84 | 220 | 5.0 | 0.0 | 0.00 | 0.00 | 0.00 | 40 | 1018.0 |
| 20260830103400 | 84 | 220 | 5.0 | 0.0 | 0.00 | 0.00 | 0.00 | 40 | 1018.0 |
| 20260830101901 | 84 | 220 | 5.0 | 0.0 | 0.00 | 0.00 | 0.00 | 40 | 1018.0 |
| 20260830100400 | 84 | 220 | 5.0 | 0.0 | 0.00 | 0.00 | 0.00 | 40 | 1018.0 |
| 20260830094900 | 81 | 320 | 5.0 | 0.0 | 0.00 | 0.00 | 0.00 | 51 | 1018.0 |
| 20260830093400 | 81 | 320 | 5.0 | 0.0 | 0.00 | 0.00 | 0.00 | 51 | 1018.0 |
| 20260830091900 | 81 | 320 | 5.0 | 0.0 | 0.00 | 0.00 | 0.00 | 51 | 1018.0 |
| 20260830090421 | 81 | 320 | 5.0 | 0.0 | 0.00 | 0.00 | 0.00 | 51 | 1018.0 |
| 20260830084900 | 77 | 320 | 6.0 | 0.0 | 0.00 | 0.00 | 0.00 | 61 | 1018.0 |
| 20260830083406 | 77 | 320 | 6.0 | 0.0 | 0.00 | 0.00 | 0.00 | 61 | 1018.0 |
| 20260830081859 | 77 | 320 | 6.0 | 0.0 | 0.00 | 0.00 | 0.00 | 61 | 1018.0 |
| 20260830080359 | 77 | 320 | 6.0 | 0.0 | 0.00 | 0.00 | 0.00 | 61 | 1018.0 |
| 20260830074859 | 75 | 320 | 6.0 | 0.0 | 0.00 | 0.00 | 0.00 | 69 | 1018.0 |
| 20260830073430 | 75 | 320 | 6.0 | 0.0 | 0.00 | 0.00 | 0.00 | 69 | 1018.0 |
| 20260830071859 | 75 | 320 | 6.0 | 0.0 | 0.00 | 0.00 | 0.00 | 69 | 1018.0 |
| 20260830070359 | 75 | 320 | 6.0 | 0.0 | 0.00 | 0.00 | 0.00 | 69 | 1018.0 |
| 20260830064859 | 72 | 100 | 5.0 | 0.0 | 0.00 | 0.00 | 0.00 | 73 | 1017.0 |
| 20260830063400 | 72 | 100 | 5.0 | 0.0 | 0.00 | 0.00 | 0.00 | 73 | 1017.0 |
| 20260830061859 | 72 | 100 | 5.0 | 0.0 | 0.00 | 0.00 | 0.00 | 73 | 1017.0 |
| 20260830060359 | 72 | 100 | 5.0 | 0.0 | 0.00 | 0.00 | 0.00 | 73 | 1017.0 |
| 20260830054900 | 63 | 100 | 5.0 | 0.0 | 0.00 | 0.00 | 0.00 | 94 | 1017.0 |
| 20260830053359 | 63 | 100 | 5.0 | 0.0 | 0.00 | 0.00 | 0.00 | 94 | 1017.0 |
| 20260830051859 | 63 | 100 | 5.0 | 0.0 | 0.00 | 0.00 | 0.00 | 94 | 1017.0 |
| 20260830050359 | 63 | 100 | 5.0 | 0.0 | 0.00 | 0.00 | 0.00 | 94 | 1017.0 |
| 20260830044859 | 57 | 110 | 5.0 | 0.0 | 0.00 | 0.00 | 0.00 | 100 | 1017.0 |
| 20260830043359 | 57 | 110 | 5.0 | 0.0 | 0.00 | 0.00 | 0.00 | 100 | 1017.0 |
| 20260830041931 | 57 | 110 | 5.0 | 0.0 | 0.00 | 0.00 | 0.00 | 100 | 1017.0 |
| 20260830040400 | 57 | 110 | 5.0 | 0.0 | 0.00 | 0.00 | 0.00 | 100 | 1017.0 |
| 20260830034856 | 57 | 90 | 5.0 | 0.0 | 0.00 | 0.00 | 0.00 | 88 | 1017.0 |
| 20260830033359 | 57 | 90 | 5.0 | 0.0 | 0.00 | 0.00 | 0.00 | 88 | 1017.0 |
| 20260830031900 | 57 | 90 | 5.0 | 0.0 | 0.00 | 0.00 | 0.00 | 88 | 1017.0 |
| 20260830030400 | 57 | 90 | 5.0 | 0.0 | 0.00 | 0.00 | 0.00 | 88 | 1017.0 |
| 20260830024856 | 57 | 90 | 7.0 | 0.0 | 0.00 | 0.00 | 0.00 | 88 | 1017.0 |